Time;durP1;ratioP1;P1;durP2;ratioP2;P2;SDS_P1;SDS_P2;PMS_P1;PMS_P2;Temp;Humidity;BMP_temperature;BMP_pressure;BME280_temperature;BME280_humidity;BME280_pressure;Samples;Min_cycle;Max_cycle;Signal;HPM_P1;HPM_P2
2022/02/18 00:08:30;;;;;;;19.30;9.20;;;;;;;4.50;100.00;98611.59;30747412;28;20048;-73
2022/02/18 00:23:33;;;;;;;18.40;8.60;;;;;;;4.63;100.00;98612.50;30714309;28;20059;-74
2022/02/18 00:38:34;;;;;;;18.60;9.67;;;;;;;4.70;100.00;98599.69;30715715;28;20066;-74
2022/02/18 00:53:37;;;;;;;17.07;8.20;;;;;;;4.72;100.00;98605.41;30740957;28;20058;-73
2022/02/18 01:08:38;;;;;;;15.97;7.37;;;;;;;4.61;100.00;98561.09;30714370;28;20048;-72
2022/02/18 01:23:41;;;;;;;19.60;8.63;;;;;;;4.55;100.00;98595.75;30712050;28;20085;-73
2022/02/18 01:38:43;;;;;;;16.27;7.63;;;;;;;4.56;100.00;98572.31;30741796;28;20122;-75
2022/02/18 01:53:45;;;;;;;16.13;8.27;;;;;;;4.61;100.00;98556.47;30721315;28;20051;-74
2022/02/18 02:08:47;;;;;;;26.97;9.93;;;;;;;4.62;100.00;98568.00;30724361;28;20056;-73
2022/02/18 02:23:50;;;;;;;20.77;9.60;;;;;;;4.55;100.00;98560.06;30707354;28;21540;-74
2022/02/18 02:38:52;;;;;;;9.57;5.73;;;;;;;4.55;100.00;98576.19;30750945;28;20051;-75
2022/02/18 02:53:53;;;;;;;25.40;10.50;;;;;;;4.60;100.00;98607.97;30711396;28;20047;-74
2022/02/18 03:08:55;;;;;;;17.60;8.03;;;;;;;4.69;100.00;98613.56;30711062;28;20056;-73
2022/02/18 03:23:57;;;;;;;16.80;8.10;;;;;;;4.70;100.00;98582.81;30750206;28;20055;-73
2022/02/18 03:39:00;;;;;;;21.70;10.40;;;;;;;4.64;100.00;98585.22;30708945;28;20149;-73
2022/02/18 03:54:02;;;;;;;21.30;10.90;;;;;;;4.62;100.00;98602.94;30723185;28;20070;-74
2022/02/18 04:09:04;;;;;;;23.83;9.47;;;;;;;4.64;100.00;98611.34;30741247;28;20043;-74
2022/02/18 04:24:06;;;;;;;27.50;11.80;;;;;;;4.64;100.00;98605.97;30690277;28;20060;-73
2022/02/18 04:39:08;;;;;;;24.27;11.80;;;;;;;4.65;100.00;98645.13;30698160;28;20051;-74
2022/02/18 04:54:10;;;;;;;28.37;10.30;;;;;;;4.82;100.00;98662.81;30718381;28;20058;-74
2022/02/18 05:09:12;;;;;;;28.63;11.23;;;;;;;4.92;100.00;98675.31;30699850;28;20051;-73
2022/02/18 05:24:13;;;;;;;26.50;11.47;;;;;;;5.05;100.00;98678.13;30723842;28;20512;-73
2022/02/18 05:39:17;;;;;;;33.90;12.67;;;;;;;5.31;100.00;98696.03;30710400;28;20110;-75
2022/02/18 05:54:19;;;;;;;28.87;11.97;;;;;;;5.72;100.00;98700.16;30726980;28;20470;-75
2022/02/18 06:09:21;;;;;;;33.90;14.17;;;;;;;5.75;100.00;98739.69;30717204;28;20053;-73
2022/02/18 06:24:23;;;;;;;39.97;18.37;;;;;;;5.85;100.00;98727.19;30769078;28;20055;-74
2022/02/18 06:39:25;;;;;;;38.67;15.13;;;;;;;6.37;100.00;98727.91;30714842;28;20142;-73
2022/02/18 06:54:28;;;;;;;37.23;15.43;;;;;;;7.49;100.00;98732.63;30722851;28;20057;-75
2022/02/18 07:09:30;;;;;;;31.30;12.27;;;;;;;9.28;100.00;98774.41;30702105;28;20052;-74
2022/02/18 07:24:32;;;;;;;24.60;12.47;;;;;;;11.21;93.39;98783.47;30709240;28;20495;-73
2022/02/18 07:39:34;;;;;;;21.17;10.03;;;;;;;11.04;87.14;98793.13;30713834;28;20633;-74
2022/02/18 07:54:37;;;;;;;20.60;9.97;;;;;;;9.02;93.58;98812.41;30702664;28;20454;-74
2022/02/18 08:09:40;;;;;;;21.23;8.90;;;;;;;8.93;95.65;98809.63;30726392;28;20752;-74
2022/02/18 08:24:42;;;;;;;16.10;7.87;;;;;;;8.90;92.50;98810.50;30720775;28;20055;-74
2022/02/18 08:39:43;;;;;;;14.77;6.33;;;;;;;11.08;81.51;98798.41;30744151;28;20057;-74
2022/02/18 08:54:45;;;;;;;11.87;6.10;;;;;;;11.56;74.46;98826.63;30769028;28;20059;-74
2022/02/18 09:09:48;;;;;;;9.33;4.40;;;;;;;11.04;75.23;98842.00;30717807;28;20139;-73
2022/02/18 09:24:50;;;;;;;11.17;5.13;;;;;;;10.63;77.88;98845.25;30736214;28;20845;-73
2022/02/18 09:39:51;;;;;;;6.47;4.27;;;;;;;12.93;67.12;98850.59;30738570;28;20121;-73
2022/02/18 09:54:54;;;;;;;5.67;3.63;;;;;;;13.24;64.49;98878.22;30710708;28;20055;-73
2022/02/18 10:09:55;;;;;;;5.83;2.83;;;;;;;11.50;71.06;98896.38;30709413;28;20395;-73
2022/02/18 10:25:07;;;;;;;6.93;3.63;;;;;;;10.04;75.73;98890.50;30742400;28;20060;-74
2022/02/18 10:40:19;;;;;;;5.23;3.57;;;;;;;9.44;79.47;98939.44;30746421;28;20086;-74
2022/02/18 10:55:21;;;;;;;6.67;3.50;;;;;;;9.06;81.45;98961.94;30727223;28;20055;-74
2022/02/18 11:10:37;;;;;;;4.63;3.50;;;;;;;8.85;80.22;98973.44;30729943;28;20052;-74
2022/02/18 11:25:41;;;;;;;;;;;;;;;9.01;81.63;99005.78;30722634;28;20055;-74
2022/02/18 11:40:54;;;;;;;4.60;3.37;;;;;;;8.81;80.78;99029.59;30750234;28;20391;-74
2022/02/18 11:55:56;;;;;;;5.67;4.43;;;;;;;8.65;83.09;99059.44;30728124;28;20051;-74
2022/02/18 12:10:58;;;;;;;11.37;7.03;;;;;;;8.32;84.18;99086.63;30684260;28;20461;-74
2022/02/18 12:26:24;;;;;;;6.90;4.13;;;;;;;7.97;85.81;99120.72;30767028;28;20054;-75
2022/02/18 12:41:27;;;;;;;5.10;3.60;;;;;;;7.67;86.66;99146.13;30734961;28;20051;-73
2022/02/18 12:56:29;;;;;;;7.03;4.47;;;;;;;7.15;86.95;99189.28;30726662;28;20059;-74
2022/02/18 13:11:32;;;;;;;7.53;4.37;;;;;;;6.89;85.20;99220.63;30784926;28;20475;-73
2022/02/18 13:26:34;;;;;;;3.90;2.73;;;;;;;6.74;82.83;99259.84;30762577;28;20058;-75
2022/02/18 13:41:37;;;;;;;4.27;2.67;;;;;;;6.78;83.55;99287.53;30757405;28;20054;-74
2022/02/18 13:56:40;;;;;;;4.50;2.50;;;;;;;6.68;83.04;99316.19;30705220;28;20057;-73
2022/02/18 14:11:49;;;;;;;5.63;3.10;;;;;;;6.43;83.39;99343.53;30723612;28;20062;-73
2022/02/18 14:26:51;;;;;;;7.03;3.83;;;;;;;6.28;85.95;99366.50;30734658;28;20055;-74
2022/02/18 14:42:17;;;;;;;5.93;2.90;;;;;;;6.28;84.13;99406.16;30721744;28;20070;-75
2022/02/18 14:57:24;;;;;;;7.17;3.47;;;;;;;6.09;84.13;99434.53;30744761;28;20138;-75
2022/02/18 15:12:26;;;;;;;7.80;3.43;;;;;;;5.98;84.95;99452.72;30713909;28;20137;-74
2022/02/18 15:27:28;;;;;;;5.83;3.27;;;;;;;5.83;85.40;99495.19;30766110;28;20059;-75
2022/02/18 15:42:30;;;;;;;5.40;3.40;;;;;;;5.80;86.59;99523.69;30759203;28;20047;-75
2022/02/18 15:57:32;;;;;;;11.37;6.30;;;;;;;5.83;86.32;99560.63;30716382;28;20055;-75
2022/02/18 16:12:35;;;;;;;7.07;4.53;;;;;;;5.76;86.58;99590.28;30725540;28;20408;-75
2022/02/18 16:27:38;;;;;;;5.83;3.30;;;;;;;5.58;87.28;99619.28;30709535;28;20059;-75
2022/02/18 16:42:41;;;;;;;5.90;2.80;;;;;;;5.38;87.48;99658.66;30751216;28;20051;-76
2022/02/18 16:57:44;;;;;;;2.93;2.20;;;;;;;5.09;87.39;99676.88;30760246;28;20527;-73
2022/02/18 17:12:47;;;;;;;4.87;2.47;;;;;;;4.98;87.63;99701.09;30738262;28;20486;-75
2022/02/18 17:27:49;;;;;;;2.93;2.20;;;;;;;5.00;87.26;99731.06;30718817;29;20142;-74
2022/02/18 17:42:51;;;;;;;5.00;2.67;;;;;;;4.89;86.86;99751.88;30742169;28;20158;-75
2022/02/18 17:57:53;;;;;;;4.47;2.40;;;;;;;4.42;83.86;99767.28;30752506;28;20141;-76
2022/02/18 18:12:54;;;;;;;5.47;3.73;;;;;;;4.18;83.85;99794.16;30730645;28;20062;-75
2022/02/18 18:27:57;;;;;;;4.83;2.90;;;;;;;4.09;85.14;99824.06;30735517;29;20074;-74
2022/02/18 18:42:59;;;;;;;6.00;3.50;;;;;;;4.18;83.26;99835.22;30741183;28;20055;-73
2022/02/18 18:58:00;;;;;;;3.97;2.73;;;;;;;4.08;83.13;99849.38;30753700;28;20066;-75
2022/02/18 19:13:03;;;;;;;5.50;3.70;;;;;;;4.19;82.75;99869.00;30728857;28;20513;-79
2022/02/18 19:28:30;;;;;;;5.00;2.83;;;;;;;4.23;81.65;99890.50;30730454;28;20067;-81
2022/02/18 19:43:32;;;;;;;5.63;3.27;;;;;;;4.22;82.68;99913.16;30713835;28;20047;-82
2022/02/18 19:58:34;;;;;;;10.47;5.50;;;;;;;4.33;82.19;99924.69;30704049;28;20070;-82
2022/02/18 20:13:36;;;;;;;10.63;5.40;;;;;;;4.41;81.53;99935.09;30717575;28;20138;-80
2022/02/18 20:28:42;;;;;;;10.67;5.13;;;;;;;4.25;82.37;99961.50;30737175;28;20091;-79
2022/02/18 20:43:44;;;;;;;7.67;4.60;;;;;;;4.09;82.79;99979.88;30702888;28;20047;-78
2022/02/18 20:58:46;;;;;;;7.43;4.63;;;;;;;4.13;82.47;99991.41;30733475;28;20060;-80
2022/02/18 21:13:48;;;;;;;6.40;3.60;;;;;;;4.12;82.46;100003.31;30718638;28;20514;-79
2022/02/18 21:28:51;;;;;;;8.03;4.13;;;;;;;4.03;82.92;100014.38;30745083;28;20141;-79
2022/02/18 21:43:53;;;;;;;7.30;4.53;;;;;;;4.05;83.11;100017.47;30742900;28;20053;-78
2022/02/18 21:58:55;;;;;;;12.20;4.33;;;;;;;3.88;82.88;100039.63;30690922;28;20051;-78
2022/02/18 22:13:57;;;;;;;8.20;4.50;;;;;;;3.54;84.65;100048.97;30737590;28;20053;-78
2022/02/18 22:29:00;;;;;;;9.90;4.67;;;;;;;3.33;86.00;100068.34;30718458;28;20597;-77
2022/02/18 22:44:16;;;;;;;20.53;8.20;;;;;;;3.17;87.51;100097.31;30726010;28;20058;-74
2022/02/18 22:59:18;;;;;;;15.93;6.63;;;;;;;3.02;87.73;100115.19;30734525;28;20058;-76
2022/02/18 23:14:20;;;;;;;8.70;6.07;;;;;;;2.95;88.85;100137.31;30744283;28;20565;-76
2022/02/18 23:29:30;;;;;;;10.73;5.30;;;;;;;2.77;90.08;100155.09;31679288;27;20380;-76
2022/02/18 23:44:32;;;;;;;11.70;5.73;;;;;;;2.69;90.54;100174.91;31595513;28;20139;-76
2022/02/18 23:59:35;;;;;;;16.23;6.00;;;;;;;2.74;91.52;100188.78;31617134;28;20127;-76
